Time;durP1;ratioP1;P1;durP2;ratioP2;P2;SDS_P1;SDS_P2;PMS_P1;PMS_P2;Temp;Humidity;BMP_temperature;BMP_pressure;BME280_temperature;BME280_humidity;BME280_pressure;Samples;Min_cycle;Max_cycle;Signal;HPM_P1;HPM_P2
2023/11/11 00:02:23;;;;;;;3.08;1.48;;;7.40;99.90;;;;;;5046886;28;20052;-90
2023/11/11 00:04:48;;;;;;;2.03;1.90;;;7.40;99.90;;;;;;5038029;28;20014;-90
2023/11/11 00:07:15;;;;;;;2.08;1.20;;;7.50;99.90;;;;;;5045155;28;20037;-90
2023/11/11 00:09:41;;;;;;;2.45;1.67;;;7.50;99.90;;;;;;5036167;28;20418;-89
2023/11/11 00:12:07;;;;;;;1.92;1.42;;;7.50;99.90;;;;;;5039155;28;20021;-88
2023/11/11 00:14:34;;;;;;;3.67;1.65;;;7.50;99.90;;;;;;5040949;28;20029;-88
2023/11/11 00:17:00;;;;;;;2.38;1.67;;;7.50;99.90;;;;;;5036393;28;20375;-90
2023/11/11 00:19:27;;;;;;;1.67;1.58;;;7.50;99.90;;;;;;5036942;28;20479;-90
2023/11/11 00:21:53;;;;;;;2.60;1.58;;;7.60;99.90;;;;;;5028982;28;20103;-90
2023/11/11 00:24:19;;;;;;;3.05;2.00;;;7.60;99.90;;;;;;5036136;28;20052;-90
2023/11/11 00:26:48;;;;;;;3.05;2.72;;;7.60;99.90;;;;;;5046689;28;20074;-89
2023/11/11 00:29:14;;;;;;;2.25;1.77;;;7.60;99.90;;;;;;5058146;28;20037;-90
2023/11/11 00:31:40;;;;;;;4.60;1.65;;;7.60;99.90;;;;;;5049458;28;20021;-89
2023/11/11 00:34:06;;;;;;;2.30;1.65;;;7.70;99.90;;;;;;5039030;28;20075;-90
2023/11/11 00:36:39;;;;;;;2.28;1.58;;;7.70;99.90;;;;;;5037556;28;20024;-87
2023/11/11 00:39:06;;;;;;;2.40;1.58;;;7.70;99.90;;;;;;5047587;28;20026;-91
2023/11/11 00:41:33;;;;;;;1.67;1.27;;;7.70;99.90;;;;;;5046196;28;20017;-90
2023/11/11 00:43:59;;;;;;;1.88;1.38;;;7.90;99.90;;;;;;5040069;28;20036;-93
2023/11/11 00:46:24;;;;;;;1.30;1.20;;;7.80;99.90;;;;;;5045051;28;20045;-90
2023/11/11 00:48:50;;;;;;;1.80;1.70;;;7.80;99.90;;;;;;5038792;28;20037;-90
2023/11/11 00:51:17;;;;;;;1.25;1.25;;;7.70;99.90;;;;;;5055153;28;20026;-90
2023/11/11 00:53:44;;;;;;;1.45;1.45;;;7.70;99.90;;;;;;5048113;28;20032;-90
2023/11/11 00:56:10;;;;;;;1.65;1.55;;;7.80;98.90;;;;;;5056406;28;20025;-89
2023/11/11 00:58:36;;;;;;;0.70;0.70;;;7.70;99.90;;;;;;5038469;28;20564;-90
2023/11/11 01:01:01;;;;;;;1.27;1.10;;;7.70;99.90;;;;;;5038128;28;20087;-89
2023/11/11 01:03:27;;;;;;;1.27;1.13;;;7.70;99.90;;;;;;5039821;28;20071;-90
2023/11/11 01:05:53;;;;;;;1.65;1.08;;;7.60;99.90;;;;;;5039207;28;20032;-91
2023/11/11 01:08:19;;;;;;;1.63;1.52;;;7.60;99.90;;;;;;5047774;28;20028;-90
2023/11/11 01:10:45;;;;;;;1.25;1.23;;;7.60;99.90;;;;;;5055746;28;20108;-90
2023/11/11 01:13:11;;;;;;;1.73;1.45;;;7.60;99.90;;;;;;5050783;28;20076;-90
2023/11/11 01:15:37;;;;;;;1.52;1.42;;;7.60;99.90;;;;;;5044195;28;20025;-92
2023/11/11 01:18:03;;;;;;;1.25;0.98;;;7.50;99.90;;;;;;5041384;28;20017;-89
2023/11/11 01:20:29;;;;;;;1.80;1.70;;;7.50;99.90;;;;;;5031227;28;20030;-91
2023/11/11 01:22:54;;;;;;;1.60;1.50;;;7.50;99.90;;;;;;5048212;28;20032;-90
2023/11/11 01:25:21;;;;;;;1.73;1.63;;;7.60;99.90;;;;;;5042496;28;20025;-88
2023/11/11 01:27:49;;;;;;;2.05;1.77;;;7.60;99.90;;;;;;5050014;28;20108;-89
2023/11/11 01:30:16;;;;;;;1.67;1.05;;;7.50;99.90;;;;;;5021826;28;20121;-92
2023/11/11 01:32:47;;;;;;;1.85;1.75;;;7.50;99.90;;;;;;5038963;28;20033;-90
2023/11/11 01:35:12;;;;;;;3.15;2.17;;;7.50;99.90;;;;;;5038847;28;20075;-89
2023/11/11 01:37:38;;;;;;;1.70;1.60;;;7.50;99.90;;;;;;5052889;28;20032;-90
2023/11/11 01:40:04;;;;;;;2.53;1.15;;;7.50;99.90;;;;;;5038252;28;20037;-90
2023/11/11 01:42:30;;;;;;;1.55;1.45;;;7.50;99.90;;;;;;5043136;28;20384;-91
2023/11/11 01:44:56;;;;;;;2.05;1.88;;;7.50;99.90;;;;;;5041805;28;20017;-89
2023/11/11 01:47:21;;;;;;;1.98;1.55;;;7.40;99.90;;;;;;5046165;28;20018;-90
2023/11/11 01:49:47;;;;;;;1.65;1.17;;;7.40;99.90;;;;;;5046882;28;20048;-90
2023/11/11 01:52:13;;;;;;;1.58;1.48;;;7.50;99.90;;;;;;5041552;28;20049;-91
2023/11/11 01:54:42;;;;;;;1.58;1.48;;;7.50;99.90;;;;;;5056552;28;20096;-89
2023/11/11 01:57:09;;;;;;;2.17;1.85;;;7.40;99.90;;;;;;5038535;28;20050;-91
2023/11/11 01:59:37;;;;;;;1.73;1.63;;;7.40;99.90;;;;;;5040936;28;20035;-91
2023/11/11 02:02:02;;;;;;;1.80;1.70;;;7.30;99.90;;;;;;5041348;28;20021;-89
2023/11/11 02:04:28;;;;;;;2.30;1.73;;;7.30;99.90;;;;;;5054545;28;20021;-90
2023/11/11 02:06:55;;;;;;;1.67;1.55;;;7.30;99.90;;;;;;5044478;28;20108;-90
2023/11/11 02:09:22;;;;;;;2.15;1.67;;;7.30;99.90;;;;;;5049132;28;20057;-91
2023/11/11 02:11:54;;;;;;;2.70;1.92;;;7.30;99.90;;;;;;5047479;28;20025;-91
2023/11/11 02:14:21;;;;;;;3.17;1.35;;;7.30;99.90;;;;;;5038240;28;20033;-90
2023/11/11 02:16:47;;;;;;;1.42;1.33;;;7.40;99.90;;;;;;5029561;28;20021;-90
2023/11/11 02:19:12;;;;;;;2.45;1.48;;;7.40;99.90;;;;;;5059204;28;20470;-90
2023/11/11 02:21:38;;;;;;;1.55;1.38;;;7.50;99.90;;;;;;5044887;28;20027;-90
2023/11/11 02:24:04;;;;;;;2.95;1.23;;;7.50;99.90;;;;;;5051869;28;20044;-89
2023/11/11 02:26:30;;;;;;;1.15;1.05;;;7.60;99.90;;;;;;5046323;28;20021;-89
2023/11/11 02:28:55;;;;;;;1.45;1.23;;;7.50;99.90;;;;;;5041241;28;20032;-89
2023/11/11 02:31:22;;;;;;;1.27;1.15;;;7.60;99.90;;;;;;5040809;28;20021;-90
2023/11/11 02:33:50;;;;;;;2.70;1.67;;;7.60;99.90;;;;;;5039875;28;20108;-91
2023/11/11 02:36:16;;;;;;;1.50;1.40;;;7.60;99.90;;;;;;5050815;28;20090;-91
2023/11/11 02:38:41;;;;;;;1.52;1.42;;;7.60;99.90;;;;;;5043689;28;20025;-89
2023/11/11 02:41:07;;;;;;;1.42;1.33;;;7.70;99.90;;;;;;5043322;28;20025;-90
2023/11/11 02:43:33;;;;;;;1.02;0.93;;;7.70;99.90;;;;;;5042643;28;20036;-90
2023/11/11 02:45:59;;;;;;;1.63;1.52;;;7.70;99.90;;;;;;5041937;28;20026;-90
2023/11/11 02:48:24;;;;;;;1.52;1.42;;;7.60;99.90;;;;;;5041328;28;20029;-90
2023/11/11 02:50:50;;;;;;;1.23;1.13;;;7.60;99.90;;;;;;5041428;28;20040;-92
2023/11/11 02:53:16;;;;;;;1.98;1.27;;;7.70;99.90;;;;;;5047911;28;20247;-91
2023/11/11 02:55:41;;;;;;;1.80;1.60;;;7.70;99.90;;;;;;5046715;28;20305;-89
2023/11/11 02:58:07;;;;;;;2.80;1.08;;;7.70;99.90;;;;;;5041307;28;20407;-91
2023/11/11 03:00:32;;;;;;;2.70;1.65;;;7.70;99.90;;;;;;5048832;28;20028;-91
2023/11/11 03:03:01;;;;;;;2.00;1.90;;;7.70;99.90;;;;;;5049710;28;20053;-90
2023/11/11 03:05:29;;;;;;;1.58;1.23;;;7.70;99.90;;;;;;5039608;28;20026;-90
2023/11/11 03:07:55;;;;;;;1.50;1.38;;;7.70;99.90;;;;;;5041720;28;20514;-90
2023/11/11 03:10:20;;;;;;;2.30;1.23;;;7.70;99.90;;;;;;5042909;28;20037;-91
2023/11/11 03:12:47;;;;;;;1.73;1.63;;;7.60;99.90;;;;;;5042717;28;20022;-89
2023/11/11 03:15:13;;;;;;;2.20;2.08;;;7.60;99.90;;;;;;5040108;28;20032;-90
2023/11/11 03:17:39;;;;;;;2.05;1.85;;;7.60;99.90;;;;;;5041353;28;20045;-91
2023/11/11 03:20:05;;;;;;;1.83;1.73;;;7.60;99.90;;;;;;5048168;28;20033;-90
2023/11/11 03:22:34;;;;;;;1.83;1.73;;;7.60;99.90;;;;;;5040546;28;20013;-90
2023/11/11 03:24:59;;;;;;;1.48;1.17;;;7.60;99.90;;;;;;5050121;28;20017;-91
2023/11/11 03:27:26;;;;;;;2.92;1.90;;;7.60;99.90;;;;;;5047413;28;20025;-88
2023/11/11 03:29:51;;;;;;;2.08;1.70;;;7.60;99.90;;;;;;5048622;28;20041;-90
2023/11/11 03:32:17;;;;;;;2.65;1.50;;;7.60;99.90;;;;;;5048060;28;20068;-90
2023/11/11 03:34:43;;;;;;;3.42;2.38;;;7.60;99.90;;;;;;5047253;28;20064;-92
2023/11/11 03:37:08;;;;;;;3.97;2.25;;;7.50;99.90;;;;;;5045671;28;20109;-91
2023/11/11 03:39:34;;;;;;;2.90;2.05;;;7.40;99.90;;;;;;5046930;28;20037;-89
2023/11/11 03:41:59;;;;;;;3.88;2.45;;;7.40;99.90;;;;;;5040118;28;20045;-90
2023/11/11 03:44:25;;;;;;;2.63;2.42;;;7.40;99.90;;;;;;5046134;28;20025;-92
2023/11/11 03:46:50;;;;;;;3.65;2.95;;;7.30;99.90;;;;;;5047105;28;20088;-90
2023/11/11 03:49:19;;;;;;;4.10;2.00;;;7.20;99.90;;;;;;5050729;28;20071;-91
2023/11/11 03:51:45;;;;;;;3.50;2.28;;;7.30;99.90;;;;;;5043126;28;20071;-90
2023/11/11 03:54:13;;;;;;;3.75;2.92;;;7.20;99.90;;;;;;5050266;28;20021;-90
2023/11/11 03:56:38;;;;;;;;;;;7.20;99.90;;;;;;5044602;28;20033;-91
2023/11/11 03:59:05;;;;;;;3.50;2.92;;;7.20;99.90;;;;;;5048659;28;19980;-90
2023/11/11 04:01:34;;;;;;;5.72;3.17;;;7.10;99.90;;;;;;5050727;28;20017;-90
2023/11/11 04:04:00;;;;;;;5.70;3.50;;;7.20;99.90;;;;;;5040107;28;20026;-89
2023/11/11 04:06:25;;;;;;;5.32;3.45;;;7.10;99.90;;;;;;5042210;28;20036;-90
2023/11/11 04:08:51;;;;;;;6.57;4.00;;;7.10;99.90;;;;;;5039272;28;20064;-89
2023/11/11 04:11:16;;;;;;;5.80;3.47;;;7.10;99.90;;;;;;5046004;28;20025;-91
2023/11/11 04:13:45;;;;;;;4.50;2.70;;;7.10;99.90;;;;;;5055299;28;20423;-89
2023/11/11 04:16:11;;;;;;;6.38;4.00;;;7.20;99.90;;;;;;5048514;28;20032;-89
2023/11/11 04:18:37;;;;;;;4.55;3.17;;;7.10;99.90;;;;;;5053627;28;20081;-91
2023/11/11 04:21:03;;;;;;;4.70;3.65;;;7.00;99.90;;;;;;5050005;28;20032;-89
2023/11/11 04:23:29;;;;;;;4.57;3.53;;;7.10;99.90;;;;;;5046417;28;20022;-89
2023/11/11 04:25:59;;;;;;;4.18;3.55;;;7.00;99.90;;;;;;5047735;28;20047;-90
2023/11/11 04:28:25;;;;;;;5.38;4.00;;;7.00;99.90;;;;;;5051529;28;20026;-92
2023/11/11 04:30:51;;;;;;;5.15;3.85;;;7.10;99.90;;;;;;5047353;28;20040;-89
2023/11/11 04:33:17;;;;;;;6.95;3.67;;;7.00;99.90;;;;;;5045875;28;20025;-90
2023/11/11 04:35:43;;;;;;;7.18;3.63;;;7.00;99.90;;;;;;5053098;28;20041;-90
2023/11/11 04:38:09;;;;;;;6.50;3.45;;;7.00;99.90;;;;;;5055166;28;20032;-90
2023/11/11 04:40:39;;;;;;;3.88;2.92;;;7.00;99.90;;;;;;5038536;28;20029;-90
2023/11/11 04:43:05;;;;;;;5.88;3.22;;;7.00;99.90;;;;;;5042301;28;20029;-90
2023/11/11 04:45:31;;;;;;;6.20;3.42;;;7.00;99.90;;;;;;5038667;28;20550;-89
2023/11/11 04:48:01;;;;;;;4.93;3.28;;;7.00;99.90;;;;;;5047289;28;20036;-91
2023/11/11 04:50:27;;;;;;;6.05;2.78;;;7.00;99.90;;;;;;5052914;28;20040;-89
2023/11/11 04:52:53;;;;;;;5.72;5.22;;;6.90;99.90;;;;;;5045565;28;20029;-88
2023/11/11 04:55:18;;;;;;;6.13;2.78;;;6.90;99.90;;;;;;5049683;28;20055;-89
2023/11/11 04:57:47;;;;;;;6.05;3.85;;;6.80;99.90;;;;;;5042190;28;20085;-88
2023/11/11 05:00:13;;;;;;;4.22;2.90;;;6.80;99.90;;;;;;5036896;28;20443;-91
2023/11/11 05:02:43;;;;;;;3.92;3.05;;;6.80;99.90;;;;;;5038583;28;20026;-91
2023/11/11 05:05:10;;;;;;;5.72;3.83;;;6.80;99.90;;;;;;5049844;28;20096;-90
2023/11/11 05:07:38;;;;;;;5.60;3.72;;;6.80;99.90;;;;;;5052134;28;20081;-90
2023/11/11 05:10:06;;;;;;;4.72;3.72;;;6.80;99.90;;;;;;5039469;28;20109;-91
2023/11/11 05:12:35;;;;;;;6.18;5.57;;;6.80;99.90;;;;;;5043661;28;20049;-88
2023/11/11 05:15:04;;;;;;;3.88;2.95;;;6.80;99.90;;;;;;5054907;28;20039;-90
2023/11/11 05:17:30;;;;;;;6.07;3.42;;;6.80;99.90;;;;;;5047223;28;20027;-90
2023/11/11 05:19:59;;;;;;;7.55;3.83;;;6.80;99.90;;;;;;5053094;28;20111;-90
2023/11/11 05:22:26;;;;;;;9.18;4.07;;;6.90;99.90;;;;;;5042803;28;20067;-88
2023/11/11 05:24:52;;;;;;;4.47;3.60;;;6.80;99.90;;;;;;5050746;28;20017;-90
2023/11/11 05:27:19;;;;;;;5.75;4.10;;;6.80;99.90;;;;;;5049714;28;20028;-90
2023/11/11 05:29:45;;;;;;;5.90;3.25;;;6.90;99.90;;;;;;5040627;28;20080;-89
2023/11/11 05:32:11;;;;;;;7.07;3.72;;;6.90;99.90;;;;;;5049776;28;20025;-91
2023/11/11 05:34:36;;;;;;;5.38;3.45;;;6.90;99.90;;;;;;5042540;28;20037;-91
2023/11/11 05:37:02;;;;;;;4.22;3.83;;;6.90;99.90;;;;;;5041905;28;20547;-90
2023/11/11 05:39:28;;;;;;;5.35;3.58;;;6.90;99.90;;;;;;5047770;28;20017;-89
2023/11/11 05:41:53;;;;;;;5.03;3.67;;;6.90;99.90;;;;;;5041524;28;20110;-90
2023/11/11 05:44:19;;;;;;;6.30;3.55;;;6.90;99.90;;;;;;5050935;28;20025;-91
2023/11/11 05:46:45;;;;;;;7.57;4.10;;;6.90;99.90;;;;;;5042868;28;20100;-89
2023/11/11 05:49:11;;;;;;;5.05;2.92;;;6.90;99.90;;;;;;5040399;28;20064;-89
2023/11/11 05:51:36;;;;;;;4.18;3.67;;;7.00;99.90;;;;;;5042306;28;20025;-91
2023/11/11 05:54:02;;;;;;;4.03;3.47;;;6.90;99.90;;;;;;5050128;28;20151;-90
2023/11/11 05:56:28;;;;;;;6.05;3.53;;;6.80;99.90;;;;;;5054718;28;20028;-90
2023/11/11 05:58:58;;;;;;;4.82;4.35;;;6.80;99.90;;;;;;5040241;28;20021;-91
2023/11/11 06:01:27;;;;;;;5.47;3.47;;;6.80;99.90;;;;;;5050440;28;20083;-89
2023/11/11 06:03:53;;;;;;;6.95;3.95;;;6.80;99.90;;;;;;5042252;28;20543;-91
2023/11/11 06:06:19;;;;;;;4.75;3.20;;;6.80;99.90;;;;;;5049855;28;20028;-88
2023/11/11 06:08:44;;;;;;;6.50;3.92;;;6.80;99.90;;;;;;5041499;28;20022;-90
2023/11/11 06:11:10;;;;;;;5.57;4.07;;;6.80;99.90;;;;;;5052374;28;20028;-90
2023/11/11 06:13:36;;;;;;;5.22;3.03;;;6.80;99.90;;;;;;5046341;28;20026;-90
2023/11/11 06:16:02;;;;;;;5.68;2.85;;;6.80;99.90;;;;;;5041540;28;20064;-90
2023/11/11 06:18:27;;;;;;;5.38;3.47;;;6.80;99.90;;;;;;5040218;28;20044;-91
2023/11/11 06:20:53;;;;;;;5.72;2.60;;;6.80;99.90;;;;;;5047559;28;20045;-90
2023/11/11 06:23:19;;;;;;;6.75;2.80;;;6.80;99.90;;;;;;5044672;28;20497;-93
2023/11/11 06:25:44;;;;;;;5.70;3.35;;;6.80;99.90;;;;;;5054073;28;20056;-91
2023/11/11 06:28:10;;;;;;;5.40;3.58;;;6.80;99.90;;;;;;5041160;28;20045;-90
2023/11/11 06:30:35;;;;;;;4.55;3.22;;;6.90;99.90;;;;;;5041938;28;20029;-90
2023/11/11 06:33:01;;;;;;;5.70;3.65;;;6.90;99.90;;;;;;5042381;28;20029;-90
2023/11/11 06:35:28;;;;;;;4.93;3.38;;;6.90;99.90;;;;;;5041699;28;20104;-90
2023/11/11 06:37:56;;;;;;;5.93;3.00;;;6.90;99.90;;;;;;5050448;28;20032;-90
2023/11/11 06:40:22;;;;;;;5.93;2.97;;;6.90;99.90;;;;;;5048612;28;20033;-90
2023/11/11 06:42:54;;;;;;;8.02;3.53;;;6.90;99.90;;;;;;5041982;28;20084;-90
2023/11/11 06:45:20;;;;;;;7.68;3.50;;;6.90;99.90;;;;;;5044249;28;20132;-88
2023/11/11 06:47:46;;;;;;;6.93;4.03;;;6.90;99.90;;;;;;5061383;28;20053;-90
2023/11/11 06:50:14;;;;;;;3.22;2.83;;;7.00;99.90;;;;;;5049023;28;20084;-90
2023/11/11 06:52:40;;;;;;;4.10;3.22;;;7.00;99.90;;;;;;5039961;28;20029;-90
2023/11/11 06:55:09;;;;;;;3.75;3.03;;;7.00;99.90;;;;;;5032110;28;20026;-92
2023/11/11 06:57:38;;;;;;;6.57;3.20;;;7.00;99.90;;;;;;5053899;28;20395;-90
2023/11/11 07:00:07;;;;;;;5.20;2.92;;;7.00;99.90;;;;;;5041350;28;20096;-89
2023/11/11 07:02:32;;;;;;;4.07;3.25;;;7.00;99.90;;;;;;5039270;28;20064;-90
2023/11/11 07:05:04;;;;;;;4.85;3.50;;;7.00;99.90;;;;;;5049813;28;20029;-90
2023/11/11 07:07:31;;;;;;;3.63;2.80;;;7.00;99.90;;;;;;5046216;28;20029;-90
2023/11/11 07:09:57;;;;;;;4.20;2.63;;;7.00;99.90;;;;;;5047693;28;20028;-90
2023/11/11 07:12:22;;;;;;;7.10;3.17;;;7.00;99.90;;;;;;5046475;28;20025;-90
2023/11/11 07:14:48;;;;;;;4.40;3.15;;;7.10;99.90;;;;;;5038459;28;20032;-89
2023/11/11 07:17:14;;;;;;;4.82;3.53;;;7.10;99.90;;;;;;5041750;28;20048;-90
2023/11/11 07:19:40;;;;;;;4.38;3.83;;;7.10;99.90;;;;;;5050496;28;20021;-88
2023/11/11 07:22:06;;;;;;;5.88;3.53;;;7.10;99.90;;;;;;5038539;28;20025;-91
2023/11/11 07:24:32;;;;;;;7.05;3.30;;;7.10;99.90;;;;;;5047044;28;20028;-90
2023/11/11 07:26:58;;;;;;;11.50;3.67;;;7.10;99.90;;;;;;5048138;28;20053;-90
2023/11/11 07:29:25;;;;;;;5.28;3.55;;;7.10;99.90;;;;;;5050050;28;20036;-90
2023/11/11 07:31:51;;;;;;;5.65;3.85;;;7.10;99.90;;;;;;5060178;28;20013;-91
2023/11/11 07:34:17;;;;;;;4.90;3.78;;;7.10;99.90;;;;;;5042547;28;20025;-89
2023/11/11 07:36:43;;;;;;;5.80;3.70;;;7.10;99.90;;;;;;5049864;28;20028;-91
2023/11/11 07:39:09;;;;;;;6.95;4.35;;;7.10;99.90;;;;;;5038228;28;20021;-89
2023/11/11 07:41:34;;;;;;;5.55;3.60;;;7.20;99.90;;;;;;5040340;28;20026;-89
2023/11/11 07:44:06;;;;;;;6.53;3.47;;;7.20;99.90;;;;;;5047249;28;20021;-89
2023/11/11 07:46:32;;;;;;;5.00;3.50;;;7.20;99.90;;;;;;5052948;28;20546;-89
2023/11/11 07:49:01;;;;;;;6.20;3.45;;;7.20;99.90;;;;;;5041153;28;20079;-90
2023/11/11 07:51:27;;;;;;;7.78;4.95;;;7.20;99.90;;;;;;5041804;28;20033;-90
2023/11/11 07:53:53;;;;;;;3.78;3.25;;;7.20;99.70;;;;;;5047385;28;20075;-89
2023/11/11 07:56:19;;;;;;;6.18;3.13;;;7.30;99.60;;;;;;5058560;28;20112;-90
2023/11/11 07:58:47;;;;;;;5.30;3.63;;;7.30;99.90;;;;;;5042591;28;20026;-90
2023/11/11 08:01:16;;;;;;;3.53;2.97;;;7.30;99.90;;;;;;5037771;28;20108;-90
2023/11/11 08:03:44;;;;;;;5.85;3.70;;;7.30;99.80;;;;;;5047046;28;20026;-90
2023/11/11 08:06:09;;;;;;;6.18;3.45;;;7.30;99.90;;;;;;5046126;28;20463;-89
2023/11/11 08:08:35;;;;;;;4.45;3.03;;;7.30;99.90;;;;;;5044666;28;20025;-90
2023/11/11 08:11:01;;;;;;;4.40;3.15;;;7.30;99.90;;;;;;5047594;28;20051;-91
2023/11/11 08:13:28;;;;;;;7.65;3.17;;;7.30;99.90;;;;;;5045454;28;20018;-90
2023/11/11 08:15:53;;;;;;;6.22;3.63;;;7.20;99.90;;;;;;5045107;28;20138;-90
2023/11/11 08:18:19;;;;;;;4.47;3.08;;;7.20;99.90;;;;;;5044070;28;20052;-91
2023/11/11 08:20:46;;;;;;;5.28;3.60;;;7.20;99.90;;;;;;5043616;28;20013;-91
2023/11/11 08:23:12;;;;;;;5.10;3.15;;;7.10;99.90;;;;;;5038564;28;20021;-90
2023/11/11 08:25:38;;;;;;;6.93;3.72;;;7.10;99.90;;;;;;5047719;28;20024;-89
2023/11/11 08:28:04;;;;;;;5.50;3.58;;;7.20;99.90;;;;;;5047101;28;20112;-88
2023/11/11 08:30:29;;;;;;;9.77;3.38;;;7.20;99.90;;;;;;5036037;28;20040;-89
2023/11/11 08:32:55;;;;;;;5.00;4.20;;;7.30;99.90;;;;;;5039623;28;20033;-88
2023/11/11 08:35:21;;;;;;;7.30;3.40;;;7.40;99.90;;;;;;5044589;28;20029;-89
2023/11/11 08:37:46;;;;;;;7.68;4.13;;;7.60;99.90;;;;;;5054190;28;20020;-91
2023/11/11 08:40:13;;;;;;;4.75;3.50;;;7.70;99.40;;;;;;5048861;28;20025;-91
2023/11/11 08:42:39;;;;;;;5.70;3.67;;;7.80;99.90;;;;;;5046594;28;20032;-90
2023/11/11 08:45:13;;;;;;;4.57;2.85;;;7.90;99.10;;;;;;5039919;28;20033;-89
2023/11/11 08:47:39;;;;;;;5.40;3.78;;;8.00;99.00;;;;;;5032445;28;20018;-91
2023/11/11 08:50:09;;;;;;;4.07;3.67;;;8.10;98.00;;;;;;5033986;28;20575;-90
2023/11/11 08:52:36;;;;;;;6.30;3.90;;;8.20;96.90;;;;;;5052375;28;20029;-92
2023/11/11 08:55:03;;;;;;;4.53;3.13;;;8.20;95.90;;;;;;5043362;28;20366;-90
2023/11/11 08:57:28;;;;;;;5.53;3.60;;;8.10;95.60;;;;;;5040996;28;20021;-91
2023/11/11 08:59:54;;;;;;;5.15;2.90;;;8.10;95.30;;;;;;5042429;28;20036;-90
2023/11/11 09:02:20;;;;;;;3.75;3.42;;;8.20;96.70;;;;;;5057273;28;20057;-89
2023/11/11 09:04:46;;;;;;;3.90;3.38;;;8.10;94.90;;;;;;5041749;28;20021;-90
2023/11/11 09:07:11;;;;;;;4.97;3.30;;;8.00;94.60;;;;;;5057905;28;20021;-90
2023/11/11 09:09:38;;;;;;;4.13;2.95;;;8.10;94.90;;;;;;5049608;28;20029;-90
2023/11/11 09:12:04;;;;;;;5.10;3.47;;;8.10;95.40;;;;;;5050463;28;20308;-90
2023/11/11 09:14:33;;;;;;;5.95;3.45;;;8.20;95.00;;;;;;5044628;28;20384;-88
2023/11/11 09:17:03;;;;;;;5.22;3.72;;;8.20;93.40;;;;;;5048349;28;20036;-90
2023/11/11 09:19:31;;;;;;;5.63;3.13;;;8.20;94.10;;;;;;5039449;28;20032;-89
2023/11/11 09:21:57;;;;;;;3.42;2.90;;;8.30;93.70;;;;;;5050460;28;20017;-90
2023/11/11 09:24:23;;;;;;;4.85;3.33;;;8.30;93.20;;;;;;5048364;28;20507;-90
2023/11/11 09:26:50;;;;;;;4.70;3.13;;;8.30;93.30;;;;;;5040014;28;20048;-90
2023/11/11 09:29:18;;;;;;;4.53;3.50;;;8.30;92.20;;;;;;5035277;28;20064;-88
2023/11/11 09:31:44;;;;;;;4.13;3.10;;;8.20;91.10;;;;;;5044017;28;20030;-90
2023/11/11 09:34:11;;;;;;;5.85;2.90;;;8.30;93.00;;;;;;5039407;28;20038;-92
2023/11/11 09:36:39;;;;;;;6.63;3.50;;;8.30;93.20;;;;;;5039875;28;20050;-90
2023/11/11 09:39:07;;;;;;;3.78;2.78;;;8.30;92.00;;;;;;5040823;28;20488;-91
2023/11/11 09:41:32;;;;;;;3.88;2.60;;;8.40;92.30;;;;;;5050474;28;20398;-91
2023/11/11 09:43:59;;;;;;;4.22;3.00;;;8.40;90.20;;;;;;5041147;28;20030;-90
2023/11/11 09:46:31;;;;;;;4.30;3.20;;;8.50;89.20;;;;;;5033777;28;20574;-90
2023/11/11 09:48:58;;;;;;;4.13;3.45;;;8.50;88.90;;;;;;5046018;28;20595;-90
2023/11/11 09:51:25;;;;;;;6.03;2.72;;;8.60;87.60;;;;;;5049782;28;20021;-91
2023/11/11 09:53:53;;;;;;;4.28;2.25;;;8.70;88.10;;;;;;5042060;28;20025;-90
2023/11/11 09:56:20;;;;;;;2.88;1.92;;;8.80;85.90;;;;;;5041358;28;20032;-90
2023/11/11 09:58:47;;;;;;;3.22;2.63;;;8.90;84.70;;;;;;5023201;28;20022;-90
2023/11/11 10:01:13;;;;;;;3.85;3.00;;;9.00;87.40;;;;;;5029874;28;20516;-90
2023/11/11 10:03:39;;;;;;;5.18;3.33;;;9.10;83.30;;;;;;5037362;28;20026;-91
2023/11/11 10:06:06;;;;;;;6.13;2.80;;;9.00;83.00;;;;;;5039301;28;20164;-90
2023/11/11 10:08:32;;;;;;;5.40;2.65;;;9.00;83.90;;;;;;5037374;28;20037;-91
2023/11/11 10:10:58;;;;;;;4.82;2.97;;;9.10;84.20;;;;;;5038773;28;20029;-91
2023/11/11 10:13:24;;;;;;;5.43;3.08;;;9.20;84.00;;;;;;5037561;28;20029;-91
2023/11/11 10:15:51;;;;;;;3.50;2.08;;;9.40;83.80;;;;;;5045731;28;20044;-91
2023/11/11 10:18:20;;;;;;;3.33;2.85;;;9.50;81.80;;;;;;5047074;28;20249;-90
2023/11/11 10:20:46;;;;;;;2.83;2.53;;;9.50;83.00;;;;;;5039697;28;20476;-90
2023/11/11 10:23:17;;;;;;;3.72;2.20;;;9.70;80.70;;;;;;5047950;28;20041;-91
2023/11/11 10:25:44;;;;;;;3.95;3.38;;;9.10;80.20;;;;;;5039848;28;20446;-90
2023/11/11 10:28:16;;;;;;;5.10;2.30;;;8.90;81.70;;;;;;5036942;28;20151;-91
2023/11/11 10:30:42;;;;;;;3.50;2.63;;;9.00;83.60;;;;;;5039380;28;20026;-91
2023/11/11 10:33:13;;;;;;;4.10;2.67;;;9.30;84.00;;;;;;5047736;28;20040;-91
2023/11/11 10:35:39;;;;;;;5.05;2.83;;;9.40;80.80;;;;;;5039875;28;20025;-90
2023/11/11 10:38:07;;;;;;;5.05;3.13;;;9.60;79.90;;;;;;5040717;28;20026;-88
2023/11/11 10:40:34;;;;;;;5.75;3.40;;;9.60;79.40;;;;;;5039500;28;20076;-89
2023/11/11 10:43:00;;;;;;;4.03;3.22;;;9.60;79.10;;;;;;5044780;28;20040;-90
2023/11/11 10:45:26;;;;;;;6.60;3.30;;;9.80;80.00;;;;;;5038560;28;20045;-91
2023/11/11 10:47:53;;;;;;;6.40;2.90;;;10.10;78.60;;;;;;5037482;28;20484;-89
2023/11/11 10:50:19;;;;;;;4.53;2.35;;;10.50;78.00;;;;;;5038500;28;20076;-90
2023/11/11 10:52:46;;;;;;;5.07;3.40;;;10.40;77.60;;;;;;5039059;28;20033;-91
2023/11/11 10:55:13;;;;;;;3.67;3.00;;;10.90;77.60;;;;;;5037968;28;20104;-90
2023/11/11 10:57:42;;;;;;;5.63;3.25;;;11.20;77.00;;;;;;5029613;28;20022;-90
2023/11/11 11:00:24;;;;;;;4.82;2.70;;;11.40;73.00;;;;;;5035837;28;20026;-89
2023/11/11 11:02:55;;;;;;;5.20;2.50;;;11.00;71.20;;;;;;5037792;28;20049;-90
2023/11/11 11:05:44;;;;;;;4.18;2.53;;;10.40;73.90;;;;;;5041758;28;20031;-91
2023/11/11 11:08:38;;;;;;;3.72;2.78;;;10.60;74.20;;;;;;5036866;28;20175;-91
2023/11/11 11:11:31;;;;;;;5.10;2.92;;;10.50;74.00;;;;;;5039593;28;20056;-89
2023/11/11 11:14:07;;;;;;;5.03;3.63;;;10.50;77.10;;;;;;5039121;28;20064;-89
2023/11/11 11:16:37;;;;;;;4.88;3.45;;;10.60;73.80;;;;;;5039733;28;20034;-90
2023/11/11 11:19:10;;;;;;;3.65;2.20;;;10.80;73.50;;;;;;5040312;28;20105;-91
2023/11/11 11:21:35;;;;;;;4.65;4.18;;;10.70;73.00;;;;;;5050630;28;20030;-90
2023/11/11 11:24:14;;;;;;;4.68;2.85;;;10.40;74.80;;;;;;5045016;28;20036;-91
2023/11/11 11:26:40;;;;;;;4.13;2.42;;;10.30;74.90;;;;;;5036035;28;20033;-90
2023/11/11 11:29:10;;;;;;;4.80;2.83;;;10.40;75.80;;;;;;5035183;28;20025;-91
2023/11/11 11:32:08;;;;;;;4.35;2.40;;;10.40;74.50;;;;;;5038256;28;20030;-91
2023/11/11 11:34:39;;;;;;;4.50;2.55;;;10.70;71.30;;;;;;5043345;28;20052;-90
2023/11/11 11:37:12;;;;;;;3.63;2.53;;;10.80;69.30;;;;;;5031351;28;20025;-92
2023/11/11 11:39:58;;;;;;;5.20;2.45;;;11.20;66.80;;;;;;5045381;28;20561;-91
2023/11/11 11:42:27;;;;;;;3.03;2.17;;;10.90;67.80;;;;;;5039233;28;20017;-91
2023/11/11 11:44:58;;;;;;;5.00;2.95;;;10.50;69.60;;;;;;5050630;28;20022;-90
2023/11/11 11:47:35;;;;;;;2.97;1.92;;;10.10;71.60;;;;;;5044729;28;20147;-91
2023/11/11 11:50:02;;;;;;;3.85;2.58;;;10.00;73.30;;;;;;5037261;28;20034;-91
2023/11/11 11:52:27;;;;;;;3.47;2.78;;;9.90;74.00;;;;;;5038313;28;20478;-89
2023/11/11 11:54:53;;;;;;;5.80;2.50;;;9.70;73.40;;;;;;5044654;28;20033;-89
2023/11/11 11:57:19;;;;;;;4.32;2.58;;;9.70;74.30;;;;;;5035786;28;20047;-90
2023/11/11 12:00:01;;;;;;;3.78;2.65;;;9.80;71.90;;;;;;5037383;28;20038;-93
2023/11/11 12:02:26;;;;;;;4.72;1.95;;;9.90;72.00;;;;;;5040823;28;20214;-89
2023/11/11 12:05:07;;;;;;;3.65;1.95;;;10.00;70.20;;;;;;5037973;28;20045;-89
2023/11/11 12:07:36;;;;;;;3.50;2.15;;;10.50;68.50;;;;;;5041099;28;20013;-90
2023/11/11 12:10:06;;;;;;;4.45;2.08;;;11.00;65.00;;;;;;5045224;28;20032;-89
2023/11/11 12:12:31;;;;;;;3.28;2.75;;;11.40;63.30;;;;;;5034686;28;20018;-90
2023/11/11 12:14:57;;;;;;;3.10;1.83;;;11.10;63.40;;;;;;5035298;28;20029;-89
2023/11/11 12:17:23;;;;;;;3.25;2.08;;;11.10;63.20;;;;;;5035933;28;20079;-91
2023/11/11 12:19:49;;;;;;;25.85;11.77;;;10.80;64.50;;;;;;5033822;28;20071;-89
2023/11/11 12:22:15;;;;;;;3.90;2.53;;;10.70;66.20;;;;;;5036551;28;20089;-88
2023/11/11 12:24:41;;;;;;;6.00;4.22;;;10.50;67.60;;;;;;5036223;28;20034;-90
2023/11/11 12:27:08;;;;;;;4.32;2.00;;;10.40;65.90;;;;;;5043433;28;20067;-90
2023/11/11 12:29:44;;;;;;;3.92;3.30;;;10.30;65.90;;;;;;5034256;28;20022;-90
2023/11/11 12:32:13;;;;;;;3.60;2.30;;;9.90;68.20;;;;;;5030306;28;20033;-90
2023/11/11 12:34:40;;;;;;;2.88;2.40;;;9.80;76.10;;;;;;5035598;28;20028;-90
2023/11/11 12:37:06;;;;;;;1.95;1.45;;;9.40;78.10;;;;;;5036501;28;20053;-91
2023/11/11 12:39:33;;;;;;;1.90;1.63;;;9.20;79.90;;;;;;5034989;28;20021;-90
2023/11/11 12:42:01;;;;;;;1.38;1.27;;;9.20;79.50;;;;;;5039465;28;20026;-89
2023/11/11 12:44:35;;;;;;;3.78;1.95;;;9.40;79.80;;;;;;5035527;28;20017;-91
2023/11/11 12:47:06;;;;;;;;;;;10.60;75.10;;;;;;5035226;28;20021;-89
2023/11/11 12:49:33;;;;;;;2.08;1.15;;;11.60;68.10;;;;;;5033584;28;20004;-90
2023/11/11 12:51:58;;;;;;;2.28;1.88;;;12.30;62.40;;;;;;5034552;28;20033;-90
2023/11/11 12:54:33;;;;;;;2.35;2.15;;;11.80;62.90;;;;;;5035551;28;20021;-90
2023/11/11 12:56:58;;;;;;;2.90;1.90;;;10.80;66.50;;;;;;5031121;28;20137;-89